sensor_id;sensor_type;location;lat;lon;timestamp;pressure;altitude;pressure_sealevel;temperature;humidity
75656;BME280;64252;51.094;13.714;2023-04-06T00:02:16;100948.72;;;-0.60;86.49
75656;BME280;64252;51.094;13.714;2023-04-06T00:04:41;100942.53;;;-0.52;88.37
75656;BME280;64252;51.094;13.714;2023-04-06T00:07:07;100945.38;;;-0.57;87.55
75656;BME280;64252;51.094;13.714;2023-04-06T00:09:33;100951.28;;;-0.64;87.00
75656;BME280;64252;51.094;13.714;2023-04-06T00:11:58;100948.50;;;-0.45;87.89
75656;BME280;64252;51.094;13.714;2023-04-06T00:14:24;100947.16;;;-0.48;88.17
75656;BME280;64252;51.094;13.714;2023-04-06T00:16:50;100949.53;;;-0.41;87.72
75656;BME280;64252;51.094;13.714;2023-04-06T00:19:15;100957.56;;;-0.39;87.72
75656;BME280;64252;51.094;13.714;2023-04-06T00:21:41;100945.72;;;-0.45;88.24
75656;BME280;64252;51.094;13.714;2023-04-06T00:24:07;100944.75;;;-0.54;87.94
75656;BME280;64252;51.094;13.714;2023-04-06T00:26:32;100936.72;;;-0.56;87.86
75656;BME280;64252;51.094;13.714;2023-04-06T00:29:20;100938.00;;;-0.48;88.03
75656;BME280;64252;51.094;13.714;2023-04-06T00:31:46;100945.81;;;-0.50;87.32
75656;BME280;64252;51.094;13.714;2023-04-06T00:34:12;100944.91;;;-0.46;87.17
75656;BME280;64252;51.094;13.714;2023-04-06T00:36:37;100951.34;;;-0.50;87.33
75656;BME280;64252;51.094;13.714;2023-04-06T00:39:03;100939.63;;;-0.47;87.32
75656;BME280;64252;51.094;13.714;2023-04-06T00:41:30;100936.06;;;-0.48;87.23
75656;BME280;64252;51.094;13.714;2023-04-06T00:43:56;100938.44;;;-0.41;86.79
75656;BME280;64252;51.094;13.714;2023-04-06T00:46:24;100935.75;;;-0.46;87.45
75656;BME280;64252;51.094;13.714;2023-04-06T00:48:50;100938.00;;;-0.48;87.88
75656;BME280;64252;51.094;13.714;2023-04-06T00:51:16;100939.22;;;-0.54;87.76
75656;BME280;64252;51.094;13.714;2023-04-06T00:53:41;100939.44;;;-0.51;88.13
75656;BME280;64252;51.094;13.714;2023-04-06T00:56:09;100944.16;;;-0.51;87.39
75656;BME280;64252;51.094;13.714;2023-04-06T00:58:46;100938.00;;;-0.48;87.65
75656;BME280;64252;51.094;13.714;2023-04-06T01:01:12;100941.81;;;-0.44;87.51
75656;BME280;64252;51.094;13.714;2023-04-06T01:03:38;100941.53;;;-0.42;87.52
75656;BME280;64252;51.094;13.714;2023-04-06T01:06:04;100939.06;;;-0.44;87.05
75656;BME280;64252;51.094;13.714;2023-04-06T01:08:36;100935.06;;;-0.38;87.48
75656;BME280;64252;51.094;13.714;2023-04-06T01:11:30;100946.06;;;-0.33;87.13
75656;BME280;64252;51.094;13.714;2023-04-06T01:13:56;100946.06;;;-0.33;87.14
75656;BME280;64252;51.094;13.714;2023-04-06T01:16:30;100941.06;;;-0.31;87.10
75656;BME280;64252;51.094;13.714;2023-04-06T01:19:12;100943.81;;;-0.31;86.75
75656;BME280;64252;51.094;13.714;2023-04-06T01:21:41;100940.00;;;-0.35;86.52
75656;BME280;64252;51.094;13.714;2023-04-06T01:24:17;100930.78;;;-0.30;86.77
75656;BME280;64252;51.094;13.714;2023-04-06T01:27:03;100929.41;;;-0.33;86.99
75656;BME280;64252;51.094;13.714;2023-04-06T01:30:04;100937.03;;;-0.38;88.98
75656;BME280;64252;51.094;13.714;2023-04-06T01:32:40;100940.09;;;-0.40;88.42
75656;BME280;64252;51.094;13.714;2023-04-06T01:35:09;100934.53;;;-0.40;88.12
75656;BME280;64252;51.094;13.714;2023-04-06T01:37:41;100937.41;;;-0.45;88.22
75656;BME280;64252;51.094;13.714;2023-04-06T01:40:10;100932.88;;;-0.41;87.93
75656;BME280;64252;51.094;13.714;2023-04-06T01:42:47;100927.34;;;-0.41;87.91
75656;BME280;64252;51.094;13.714;2023-04-06T01:45:20;100926.84;;;-0.43;87.57
75656;BME280;64252;51.094;13.714;2023-04-06T01:47:47;100931.03;;;-0.46;87.99
75656;BME280;64252;51.094;13.714;2023-04-06T01:50:13;100935.16;;;-0.43;88.25
75656;BME280;64252;51.094;13.714;2023-04-06T01:52:43;100929.81;;;-0.39;87.59
75656;BME280;64252;51.094;13.714;2023-04-06T01:55:10;100928.91;;;-0.35;87.80
75656;BME280;64252;51.094;13.714;2023-04-06T01:57:55;100932.63;;;-0.26;87.62
75656;BME280;64252;51.094;13.714;2023-04-06T02:00:31;100921.00;;;-0.28;87.54
75656;BME280;64252;51.094;13.714;2023-04-06T02:02:57;100923.28;;;-0.30;87.78
75656;BME280;64252;51.094;13.714;2023-04-06T02:05:26;100931.59;;;-0.30;87.72
75656;BME280;64252;51.094;13.714;2023-04-06T02:07:53;100926.34;;;-0.31;87.39
75656;BME280;64252;51.094;13.714;2023-04-06T02:10:27;100930.47;;;-0.29;87.40
75656;BME280;64252;51.094;13.714;2023-04-06T02:12:53;100923.56;;;-0.31;87.90
75656;BME280;64252;51.094;13.714;2023-04-06T02:15:25;100921.09;;;-0.33;87.82
75656;BME280;64252;51.094;13.714;2023-04-06T02:17:51;100920.38;;;-0.38;87.72
75656;BME280;64252;51.094;13.714;2023-04-06T02:20:17;100917.91;;;-0.40;87.47
75656;BME280;64252;51.094;13.714;2023-04-06T02:22:42;100922.91;;;-0.42;87.18
75656;BME280;64252;51.094;13.714;2023-04-06T02:25:08;100919.09;;;-0.46;87.70
75656;BME280;64252;51.094;13.714;2023-04-06T02:27:34;100920.91;;;-0.55;88.03
75656;BME280;64252;51.094;13.714;2023-04-06T02:30:00;100914.34;;;-0.59;87.94
75656;BME280;64252;51.094;13.714;2023-04-06T02:32:26;100916.16;;;-0.68;88.50
75656;BME280;64252;51.094;13.714;2023-04-06T02:34:52;100911.22;;;-0.71;88.61
75656;BME280;64252;51.094;13.714;2023-04-06T02:37:20;100909.09;;;-0.79;89.14
75656;BME280;64252;51.094;13.714;2023-04-06T02:39:45;100915.41;;;-0.93;90.38
75656;BME280;64252;51.094;13.714;2023-04-06T02:42:11;100913.09;;;-1.04;90.09
75656;BME280;64252;51.094;13.714;2023-04-06T02:44:36;100911.72;;;-1.07;90.84
75656;BME280;64252;51.094;13.714;2023-04-06T02:47:03;100916.00;;;-1.14;90.55
75656;BME280;64252;51.094;13.714;2023-04-06T02:49:30;100912.69;;;-1.16;91.10
75656;BME280;64252;51.094;13.714;2023-04-06T02:51:58;100921.84;;;-1.16;90.70
75656;BME280;64252;51.094;13.714;2023-04-06T02:54:30;100919.97;;;-1.20;91.16
75656;BME280;64252;51.094;13.714;2023-04-06T02:56:56;100908.72;;;-1.29;91.38
75656;BME280;64252;51.094;13.714;2023-04-06T02:59:31;100922.09;;;-1.36;90.94
75656;BME280;64252;51.094;13.714;2023-04-06T03:02:05;100906.69;;;-1.42;92.07
75656;BME280;64252;51.094;13.714;2023-04-06T03:04:31;100910.09;;;-1.50;91.82
75656;BME280;64252;51.094;13.714;2023-04-06T03:06:59;100915.63;;;-1.50;92.35
75656;BME280;64252;51.094;13.714;2023-04-06T03:09:33;100914.97;;;-1.61;92.39
75656;BME280;64252;51.094;13.714;2023-04-06T03:11:59;100912.41;;;-1.57;92.47
75656;BME280;64252;51.094;13.714;2023-04-06T03:14:27;100920.13;;;-1.54;92.75
75656;BME280;64252;51.094;13.714;2023-04-06T03:16:55;100915.41;;;-1.54;92.72
75656;BME280;64252;51.094;13.714;2023-04-06T03:19:21;100912.63;;;-1.54;92.38
75656;BME280;64252;51.094;13.714;2023-04-06T03:21:48;100918.47;;;-1.55;92.19
75656;BME280;64252;51.094;13.714;2023-04-06T03:24:15;100919.28;;;-1.55;92.36
75656;BME280;64252;51.094;13.714;2023-04-06T03:26:42;100916.34;;;-1.63;93.48
75656;BME280;64252;51.094;13.714;2023-04-06T03:29:08;100925.22;;;-1.61;93.22
75656;BME280;64252;51.094;13.714;2023-04-06T03:31:34;100923.06;;;-1.69;93.16
75656;BME280;64252;51.094;13.714;2023-04-06T03:34:06;100924.03;;;-1.79;93.28
75656;BME280;64252;51.094;13.714;2023-04-06T03:36:35;100924.38;;;-1.86;93.23
75656;BME280;64252;51.094;13.714;2023-04-06T03:39:02;100931.91;;;-1.91;93.84
75656;BME280;64252;51.094;13.714;2023-04-06T03:41:31;100927.66;;;-1.84;93.68
75656;BME280;64252;51.094;13.714;2023-04-06T03:44:09;100940.44;;;-1.88;93.53
75656;BME280;64252;51.094;13.714;2023-04-06T03:46:36;100937.66;;;-1.88;94.08
75656;BME280;64252;51.094;13.714;2023-04-06T03:49:01;100939.91;;;-1.90;93.67
75656;BME280;64252;51.094;13.714;2023-04-06T03:51:28;100942.13;;;-1.92;94.12
75656;BME280;64252;51.094;13.714;2023-04-06T03:53:53;100936.59;;;-1.92;94.05
75656;BME280;64252;51.094;13.714;2023-04-06T03:56:19;100946.16;;;-2.03;94.17
75656;BME280;64252;51.094;13.714;2023-04-06T03:58:45;100945.59;;;-2.05;94.55
75656;BME280;64252;51.094;13.714;2023-04-06T04:01:14;100939.78;;;-2.03;94.75
75656;BME280;64252;51.094;13.714;2023-04-06T04:03:40;100936.69;;;-2.02;94.49
75656;BME280;64252;51.094;13.714;2023-04-06T04:06:06;100942.38;;;-2.12;94.29
75656;BME280;64252;51.094;13.714;2023-04-06T04:08:32;100948.38;;;-2.05;94.58
75656;BME280;64252;51.094;13.714;2023-04-06T04:10:57;100956.06;;;-2.02;94.50
75656;BME280;64252;51.094;13.714;2023-04-06T04:13:23;100957.25;;;-2.08;94.78
75656;BME280;64252;51.094;13.714;2023-04-06T04:15:50;100949.28;;;-2.14;94.89
75656;BME280;64252;51.094;13.714;2023-04-06T04:18:16;100947.31;;;-2.09;94.51
75656;BME280;64252;51.094;13.714;2023-04-06T04:20:42;100943.13;;;-2.06;94.82
75656;BME280;64252;51.094;13.714;2023-04-06T04:23:09;100943.72;;;-2.09;94.73
75656;BME280;64252;51.094;13.714;2023-04-06T04:25:35;100940.41;;;-2.11;94.62
75656;BME280;64252;51.094;13.714;2023-04-06T04:28:01;100954.34;;;-2.22;94.56
75656;BME280;64252;51.094;13.714;2023-04-06T04:30:28;100951.88;;;-2.23;95.36
75656;BME280;64252;51.094;13.714;2023-04-06T04:32:54;100950.28;;;-2.34;94.71
75656;BME280;64252;51.094;13.714;2023-04-06T04:35:21;100947.19;;;-2.28;95.80
75656;BME280;64252;51.094;13.714;2023-04-06T04:37:48;100952.06;;;-2.14;95.72
75656;BME280;64252;51.094;13.714;2023-04-06T04:40:14;100952.06;;;-2.14;95.15
75656;BME280;64252;51.094;13.714;2023-04-06T04:42:58;100950.59;;;-2.07;94.80
75656;BME280;64252;51.094;13.714;2023-04-06T04:45:29;100945.84;;;-2.01;94.56
75656;BME280;64252;51.094;13.714;2023-04-06T04:47:56;100964.81;;;-1.90;94.17
75656;BME280;64252;51.094;13.714;2023-04-06T04:50:26;100956.53;;;-1.90;93.69
75656;BME280;64252;51.094;13.714;2023-04-06T04:52:55;100949.88;;;-1.89;94.31
75656;BME280;64252;51.094;13.714;2023-04-06T04:55:24;100961.97;;;-1.80;94.11
75656;BME280;64252;51.094;13.714;2023-04-06T04:57:53;100955.09;;;-1.87;94.09
75656;BME280;64252;51.094;13.714;2023-04-06T05:00:25;100960.41;;;-1.91;94.94
75656;BME280;64252;51.094;13.714;2023-04-06T05:02:55;100963.13;;;-1.86;94.75
75656;BME280;64252;51.094;13.714;2023-04-06T05:05:25;100956.47;;;-1.85;95.34
75656;BME280;64252;51.094;13.714;2023-04-06T05:07:52;100965.25;;;-1.78;94.58
75656;BME280;64252;51.094;13.714;2023-04-06T05:10:38;100962.69;;;-1.74;94.38
75656;BME280;64252;51.094;13.714;2023-04-06T05:13:04;100960.97;;;-1.65;93.50
75656;BME280;64252;51.094;13.714;2023-04-06T05:15:30;100964.47;;;-1.59;93.13
75656;BME280;64252;51.094;13.714;2023-04-06T05:18:07;100956.28;;;-1.46;93.47
75656;BME280;64252;51.094;13.714;2023-04-06T05:20:35;100964.53;;;-1.41;93.04
75656;BME280;64252;51.094;13.714;2023-04-06T05:23:02;100967.78;;;-1.34;92.49
75656;BME280;64252;51.094;13.714;2023-04-06T05:25:29;100969.13;;;-1.31;92.69
75656;BME280;64252;51.094;13.714;2023-04-06T05:28:01;100970.13;;;-1.22;92.36
75656;BME280;64252;51.094;13.714;2023-04-06T05:33:19;100972.41;;;-1.05;90.82
75656;BME280;64252;51.094;13.714;2023-04-06T05:36:08;100979.22;;;-0.98;90.51
75656;BME280;64252;51.094;13.714;2023-04-06T05:38:42;100982.97;;;-0.89;89.86
75656;BME280;64252;51.094;13.714;2023-04-06T05:41:31;100982.00;;;-0.79;89.89
75656;BME280;64252;51.094;13.714;2023-04-06T05:43:57;100980.13;;;-0.65;90.16
75656;BME280;64252;51.094;13.714;2023-04-06T05:46:26;100971.06;;;-0.52;89.29
75656;BME280;64252;51.094;13.714;2023-04-06T05:48:54;100977.28;;;-0.41;88.69
75656;BME280;64252;51.094;13.714;2023-04-06T05:51:24;100980.44;;;-0.29;87.71
75656;BME280;64252;51.094;13.714;2023-04-06T05:53:52;100979.19;;;-0.23;86.41
75656;BME280;64252;51.094;13.714;2023-04-06T05:56:18;100976.56;;;-0.14;86.51
75656;BME280;64252;51.094;13.714;2023-04-06T05:58:45;100974.13;;;-0.02;85.76
75656;BME280;64252;51.094;13.714;2023-04-06T06:01:14;100975.91;;;0.08;85.76
75656;BME280;64252;51.094;13.714;2023-04-06T06:03:44;100962.88;;;0.22;85.24
75656;BME280;64252;51.094;13.714;2023-04-06T06:06:10;100964.94;;;0.30;84.30
75656;BME280;64252;51.094;13.714;2023-04-06T06:08:48;100971.75;;;0.37;83.45
75656;BME280;64252;51.094;13.714;2023-04-06T06:11:16;100961.88;;;0.45;84.07
75656;BME280;64252;51.094;13.714;2023-04-06T06:13:41;100967.44;;;0.45;82.85
75656;BME280;64252;51.094;13.714;2023-04-06T06:16:08;100961.97;;;0.54;83.26
75656;BME280;64252;51.094;13.714;2023-04-06T06:18:40;100972.59;;;0.65;82.81
75656;BME280;64252;51.094;13.714;2023-04-06T06:21:07;100978.53;;;0.72;82.67
75656;BME280;64252;51.094;13.714;2023-04-06T06:23:33;100979.38;;;0.86;82.58
75656;BME280;64252;51.094;13.714;2023-04-06T06:25:59;100972.47;;;0.98;81.98
75656;BME280;64252;51.094;13.714;2023-04-06T06:28:27;100971.91;;;1.09;81.84
75656;BME280;64252;51.094;13.714;2023-04-06T06:30:53;100972.00;;;1.18;80.41
75656;BME280;64252;51.094;13.714;2023-04-06T06:33:21;100970.16;;;1.27;79.99
75656;BME280;64252;51.094;13.714;2023-04-06T06:35:50;100973.13;;;1.30;79.90
75656;BME280;64252;51.094;13.714;2023-04-06T06:38:17;100972.38;;;1.39;79.33
75656;BME280;64252;51.094;13.714;2023-04-06T06:40:42;100979.13;;;1.46;78.82
75656;BME280;64252;51.094;13.714;2023-04-06T06:43:09;100977.28;;;1.55;78.64
75656;BME280;64252;51.094;13.714;2023-04-06T06:45:53;100972.72;;;1.59;78.71
75656;BME280;64252;51.094;13.714;2023-04-06T06:48:19;100968.88;;;1.69;78.08
75656;BME280;64252;51.094;13.714;2023-04-06T06:50:47;100971.72;;;1.77;78.68
75656;BME280;64252;51.094;13.714;2023-04-06T06:53:14;100967.53;;;1.89;77.39
75656;BME280;64252;51.094;13.714;2023-04-06T06:55:40;100971.06;;;2.03;77.39
75656;BME280;64252;51.094;13.714;2023-04-06T06:58:07;100975.50;;;2.04;76.33
75656;BME280;64252;51.094;13.714;2023-04-06T07:00:33;100975.38;;;2.09;76.37
75656;BME280;64252;51.094;13.714;2023-04-06T07:03:00;100973.59;;;2.13;75.70
75656;BME280;64252;51.094;13.714;2023-04-06T07:05:25;100973.72;;;2.30;76.34
75656;BME280;64252;51.094;13.714;2023-04-06T07:07:52;100975.25;;;2.45;75.75
75656;BME280;64252;51.094;13.714;2023-04-06T07:10:18;100971.84;;;2.56;74.64
75656;BME280;64252;51.094;13.714;2023-04-06T07:12:44;100968.66;;;2.72;74.39
75656;BME280;64252;51.094;13.714;2023-04-06T07:15:09;100962.78;;;2.82;73.40
75656;BME280;64252;51.094;13.714;2023-04-06T07:17:36;100974.81;;;2.99;74.36
75656;BME280;64252;51.094;13.714;2023-04-06T07:20:02;100965.00;;;3.11;72.18
75656;BME280;64252;51.094;13.714;2023-04-06T07:22:31;100967.78;;;3.19;71.45
75656;BME280;64252;51.094;13.714;2023-04-06T07:24:56;100974.53;;;3.27;70.92
75656;BME280;64252;51.094;13.714;2023-04-06T07:27:22;100972.72;;;3.39;70.83
75656;BME280;64252;51.094;13.714;2023-04-06T07:29:48;100970.28;;;3.46;69.09
75656;BME280;64252;51.094;13.714;2023-04-06T07:32:14;100963.88;;;3.54;70.21
75656;BME280;64252;51.094;13.714;2023-04-06T07:34:40;100964.53;;;3.86;72.51
75656;BME280;64252;51.094;13.714;2023-04-06T07:37:06;100970.94;;;3.95;67.99
75656;BME280;64252;51.094;13.714;2023-04-06T07:39:32;100970.41;;;4.02;68.58
75656;BME280;64252;51.094;13.714;2023-04-06T07:41:58;100961.69;;;4.12;69.10
75656;BME280;64252;51.094;13.714;2023-04-06T07:44:24;100970.72;;;4.17;66.77
75656;BME280;64252;51.094;13.714;2023-04-06T07:46:50;100970.38;;;4.27;66.42
75656;BME280;64252;51.094;13.714;2023-04-06T07:49:17;100962.13;;;4.39;66.36
75656;BME280;64252;51.094;13.714;2023-04-06T07:51:43;100955.13;;;4.63;66.05
75656;BME280;64252;51.094;13.714;2023-04-06T07:54:09;100953.88;;;4.81;65.93
75656;BME280;64252;51.094;13.714;2023-04-06T07:56:34;100968.75;;;5.02;65.97
75656;BME280;64252;51.094;13.714;2023-04-06T07:59:00;100968.50;;;5.16;63.91
75656;BME280;64252;51.094;13.714;2023-04-06T08:01:27;100955.41;;;5.28;63.50
75656;BME280;64252;51.094;13.714;2023-04-06T08:03:53;100958.69;;;5.30;63.76
75656;BME280;64252;51.094;13.714;2023-04-06T08:06:21;100952.00;;;5.44;62.49
75656;BME280;64252;51.094;13.714;2023-04-06T08:08:46;100949.69;;;5.46;60.07
75656;BME280;64252;51.094;13.714;2023-04-06T08:11:12;100951.03;;;5.60;62.15
75656;BME280;64252;51.094;13.714;2023-04-06T08:13:38;100951.13;;;5.72;60.21
75656;BME280;64252;51.094;13.714;2023-04-06T08:16:03;100955.94;;;5.84;59.75
75656;BME280;64252;51.094;13.714;2023-04-06T08:18:29;100954.31;;;6.04;57.91
75656;BME280;64252;51.094;13.714;2023-04-06T08:20:55;100948.19;;;6.23;57.79
75656;BME280;64252;51.094;13.714;2023-04-06T08:23:22;100951.31;;;6.54;57.25
75656;BME280;64252;51.094;13.714;2023-04-06T08:25:47;100948.50;;;6.54;54.72
75656;BME280;64252;51.094;13.714;2023-04-06T08:28:13;100946.88;;;6.65;55.93
75656;BME280;64252;51.094;13.714;2023-04-06T08:30:42;100940.56;;;6.92;53.28
75656;BME280;64252;51.094;13.714;2023-04-06T08:33:08;100940.69;;;7.08;52.69
75656;BME280;64252;51.094;13.714;2023-04-06T08:35:35;100940.16;;;7.30;52.41
75656;BME280;64252;51.094;13.714;2023-04-06T08:38:04;100942.59;;;7.56;49.67
75656;BME280;64252;51.094;13.714;2023-04-06T08:40:36;100942.28;;;7.73;49.87
75656;BME280;64252;51.094;13.714;2023-04-06T08:43:03;100946.00;;;7.89;47.65
75656;BME280;64252;51.094;13.714;2023-04-06T08:45:34;100944.97;;;8.10;49.16
75656;BME280;64252;51.094;13.714;2023-04-06T08:48:02;100939.53;;;8.17;47.87
75656;BME280;64252;51.094;13.714;2023-04-06T08:50:29;100942.59;;;8.12;47.53
75656;BME280;64252;51.094;13.714;2023-04-06T08:52:55;100931.16;;;8.32;48.06
75656;BME280;64252;51.094;13.714;2023-04-06T08:55:22;100941.06;;;8.42;46.25
75656;BME280;64252;51.094;13.714;2023-04-06T08:57:50;100937.06;;;8.43;45.11
75656;BME280;64252;51.094;13.714;2023-04-06T09:00:19;100935.72;;;8.37;44.94
75656;BME280;64252;51.094;13.714;2023-04-06T09:02:46;100937.63;;;8.49;45.98
75656;BME280;64252;51.094;13.714;2023-04-06T09:05:12;100937.78;;;8.40;44.76
75656;BME280;64252;51.094;13.714;2023-04-06T09:07:38;100942.16;;;8.53;44.58
75656;BME280;64252;51.094;13.714;2023-04-06T09:10:05;100945.63;;;8.62;42.80
75656;BME280;64252;51.094;13.714;2023-04-06T09:12:32;100936.66;;;8.57;43.92
75656;BME280;64252;51.094;13.714;2023-04-06T09:14:59;100940.19;;;8.69;43.75
75656;BME280;64252;51.094;13.714;2023-04-06T09:17:25;100927.91;;;8.77;40.84
75656;BME280;64252;51.094;13.714;2023-04-06T09:19:52;100925.00;;;8.90;41.81
75656;BME280;64252;51.094;13.714;2023-04-06T09:22:18;100922.19;;;8.90;41.49
75656;BME280;64252;51.094;13.714;2023-04-06T09:24:49;100930.88;;;9.16;39.87
75656;BME280;64252;51.094;13.714;2023-04-06T09:27:15;100935.75;;;9.19;39.42
75656;BME280;64252;51.094;13.714;2023-04-06T09:29:42;100918.00;;;8.99;36.95
75656;BME280;64252;51.094;13.714;2023-04-06T09:32:09;100912.41;;;9.53;39.05
75656;BME280;64252;51.094;13.714;2023-04-06T09:34:42;100917.97;;;9.50;40.67
75656;BME280;64252;51.094;13.714;2023-04-06T09:37:18;100912.41;;;9.73;38.43
75656;BME280;64252;51.094;13.714;2023-04-06T09:39:44;100914.19;;;10.00;39.15
75656;BME280;64252;51.094;13.714;2023-04-06T09:42:24;100910.34;;;9.69;38.90
75656;BME280;64252;51.094;13.714;2023-04-06T09:44:50;100912.25;;;9.85;37.66
75656;BME280;64252;51.094;13.714;2023-04-06T09:47:16;100901.84;;;10.08;37.11
75656;BME280;64252;51.094;13.714;2023-04-06T09:49:43;100898.34;;;10.34;38.92
75656;BME280;64252;51.094;13.714;2023-04-06T09:52:11;100892.69;;;10.79;38.29
75656;BME280;64252;51.094;13.714;2023-04-06T09:54:40;100894.59;;;10.98;35.36
75656;BME280;64252;51.094;13.714;2023-04-06T09:57:29;100895.56;;;11.35;36.02
75656;BME280;64252;51.094;13.714;2023-04-06T10:00:04;100884.97;;;11.59;34.34
75656;BME280;64252;51.094;13.714;2023-04-06T10:05:09;100877.66;;;11.84;33.79
75656;BME280;64252;51.094;13.714;2023-04-06T10:07:40;100879.88;;;12.01;35.84
75656;BME280;64252;51.094;13.714;2023-04-06T10:10:06;100880.81;;;12.53;35.04
75656;BME280;64252;51.094;13.714;2023-04-06T10:12:33;100876.81;;;12.57;35.50
75656;BME280;64252;51.094;13.714;2023-04-06T10:14:58;100879.66;;;12.17;32.17
75656;BME280;64252;51.094;13.714;2023-04-06T10:17:24;100879.63;;;11.50;31.66
75656;BME280;64252;51.094;13.714;2023-04-06T10:20:03;100880.91;;;11.26;34.04
75656;BME280;64252;51.094;13.714;2023-04-06T10:22:43;100887.28;;;10.71;33.08
75656;BME280;64252;51.094;13.714;2023-04-06T10:25:10;100885.09;;;10.38;35.87
75656;BME280;64252;51.094;13.714;2023-04-06T10:27:38;100891.00;;;10.10;37.61
75656;BME280;64252;51.094;13.714;2023-04-06T10:30:07;100885.25;;;9.84;37.22
75656;BME280;64252;51.094;13.714;2023-04-06T10:32:37;100892.81;;;9.80;38.58
75656;BME280;64252;51.094;13.714;2023-04-06T10:35:10;100886.44;;;10.21;37.51
75656;BME280;64252;51.094;13.714;2023-04-06T10:37:53;100881.22;;;10.46;36.73
75656;BME280;64252;51.094;13.714;2023-04-06T10:40:23;100886.28;;;10.60;36.96
75656;BME280;64252;51.094;13.714;2023-04-06T10:42:51;100876.94;;;10.55;36.83
75656;BME280;64252;51.094;13.714;2023-04-06T10:45:26;100885.47;;;11.08;34.68
75656;BME280;64252;51.094;13.714;2023-04-06T10:47:56;100874.00;;;11.54;34.52
75656;BME280;64252;51.094;13.714;2023-04-06T10:50:22;100874.00;;;11.54;35.22
75656;BME280;64252;51.094;13.714;2023-04-06T10:53:09;100871.22;;;11.27;34.87
75656;BME280;64252;51.094;13.714;2023-04-06T10:55:38;100870.38;;;11.23;34.74
75656;BME280;64252;51.094;13.714;2023-04-06T10:58:08;100861.09;;;11.26;35.13
75656;BME280;64252;51.094;13.714;2023-04-06T11:00:34;100856.19;;;10.93;35.94
75656;BME280;64252;51.094;13.714;2023-04-06T11:03:00;100859.06;;;10.71;36.95
75656;BME280;64252;51.094;13.714;2023-04-06T11:05:27;100873.19;;;10.71;35.25
75656;BME280;64252;51.094;13.714;2023-04-06T11:07:53;100867.56;;;10.06;34.75
75656;BME280;64252;51.094;13.714;2023-04-06T11:10:22;100864.09;;;9.93;37.00
75656;BME280;64252;51.094;13.714;2023-04-06T11:12:54;100858.38;;;9.51;35.72
75656;BME280;64252;51.094;13.714;2023-04-06T11:15:20;100856.00;;;9.53;36.53
75656;BME280;64252;51.094;13.714;2023-04-06T11:17:46;100857.34;;;9.40;38.88
75656;BME280;64252;51.094;13.714;2023-04-06T11:20:11;100851.53;;;9.33;39.83
75656;BME280;64252;51.094;13.714;2023-04-06T11:22:48;100857.41;;;9.44;37.01
75656;BME280;64252;51.094;13.714;2023-04-06T11:25:14;100852.97;;;9.43;35.56
75656;BME280;64252;51.094;13.714;2023-04-06T11:27:42;100841.84;;;9.88;35.16
75656;BME280;64252;51.094;13.714;2023-04-06T11:30:09;100842.00;;;10.18;36.23
75656;BME280;64252;51.094;13.714;2023-04-06T11:32:45;100832.41;;;10.68;35.51
75656;BME280;64252;51.094;13.714;2023-04-06T11:35:21;100829.50;;;10.65;35.53
75656;BME280;64252;51.094;13.714;2023-04-06T11:37:50;100834.44;;;10.71;35.39
75656;BME280;64252;51.094;13.714;2023-04-06T11:40:20;100835.25;;;10.98;33.28
75656;BME280;64252;51.094;13.714;2023-04-06T11:42:55;100833.63;;;11.23;33.63
75656;BME280;64252;51.094;13.714;2023-04-06T11:45:21;100831.44;;;11.73;34.63
75656;BME280;64252;51.094;13.714;2023-04-06T11:47:55;100833.16;;;11.81;31.43
75656;BME280;64252;51.094;13.714;2023-04-06T11:50:22;100826.09;;;11.34;32.48
75656;BME280;64252;51.094;13.714;2023-04-06T11:52:58;100837.69;;;11.56;32.20
75656;BME280;64252;51.094;13.714;2023-04-06T11:55:28;100834.72;;;11.75;33.04
75656;BME280;64252;51.094;13.714;2023-04-06T11:57:54;100822.69;;;11.22;32.76
75656;BME280;64252;51.094;13.714;2023-04-06T12:00:20;100830.13;;;10.77;33.76
75656;BME280;64252;51.094;13.714;2023-04-06T12:02:47;100832.22;;;11.10;33.10
75656;BME280;64252;51.094;13.714;2023-04-06T12:05:13;100828.19;;;11.11;34.03
75656;BME280;64252;51.094;13.714;2023-04-06T12:07:38;100823.88;;;11.21;33.79
75656;BME280;64252;51.094;13.714;2023-04-06T12:10:04;100818.63;;;11.19;32.84
75656;BME280;64252;51.094;13.714;2023-04-06T12:12:30;100817.69;;;10.82;33.90
75656;BME280;64252;51.094;13.714;2023-04-06T12:14:56;100828.03;;;10.74;34.41
75656;BME280;64252;51.094;13.714;2023-04-06T12:17:22;100821.69;;;10.54;35.53
75656;BME280;64252;51.094;13.714;2023-04-06T12:19:48;100823.59;;;10.05;35.21
75656;BME280;64252;51.094;13.714;2023-04-06T12:22:14;100817.06;;;9.59;36.33
75656;BME280;64252;51.094;13.714;2023-04-06T12:24:40;100809.72;;;9.35;36.81
75656;BME280;64252;51.094;13.714;2023-04-06T12:27:06;100815.88;;;9.21;36.85
75656;BME280;64252;51.094;13.714;2023-04-06T12:29:32;100810.00;;;9.11;36.24
75656;BME280;64252;51.094;13.714;2023-04-06T12:31:57;100818.00;;;9.09;38.64
75656;BME280;64252;51.094;13.714;2023-04-06T12:34:25;100810.38;;;9.09;38.31
75656;BME280;64252;51.094;13.714;2023-04-06T12:36:51;100805.25;;;9.15;37.98
75656;BME280;64252;51.094;13.714;2023-04-06T12:39:18;100799.50;;;9.46;37.83
75656;BME280;64252;51.094;13.714;2023-04-06T12:41:43;100797.00;;;9.83;36.81
75656;BME280;64252;51.094;13.714;2023-04-06T12:44:09;100788.66;;;10.13;37.03
75656;BME280;64252;51.094;13.714;2023-04-06T12:46:34;100794.50;;;10.01;36.37
75656;BME280;64252;51.094;13.714;2023-04-06T12:49:00;100783.31;;;9.85;37.03
75656;BME280;64252;51.094;13.714;2023-04-06T12:51:29;100783.78;;;10.10;37.50
75656;BME280;64252;51.094;13.714;2023-04-06T12:53:56;100785.44;;;10.34;36.21
75656;BME280;64252;51.094;13.714;2023-04-06T12:56:22;100790.72;;;10.35;35.25